createdAt,value
2023-03-17T00:01:36.412Z,15.70
2023-03-17T00:04:15.847Z,15.70
2023-03-17T00:06:53.363Z,15.70
2023-03-17T00:09:29.880Z,15.30
2023-03-17T00:12:06.104Z,15.40
2023-03-17T00:14:43.157Z,15.40
2023-03-17T00:17:29.543Z,15.50
2023-03-17T00:20:05.307Z,15.40
2023-03-17T00:22:42.712Z,15.20
2023-03-17T00:25:27.788Z,15.20
2023-03-17T00:28:09.682Z,15.10
2023-03-17T00:30:47.541Z,15.20
2023-03-17T00:33:30.214Z,15.20
2023-03-17T00:36:10.647Z,15.30
2023-03-17T00:38:50.709Z,15.30
2023-03-17T00:41:27.341Z,15.60
2023-03-17T00:44:04.365Z,15.70
2023-03-17T00:46:46.597Z,15.50
2023-03-17T00:49:36.065Z,15.70
2023-03-17T00:52:15.242Z,15.80
2023-03-17T00:54:56.494Z,15.50
2023-03-17T00:57:34.870Z,15.70
2023-03-17T01:00:30.201Z,15.70
2023-03-17T01:03:13.032Z,15.80
2023-03-17T01:05:59.469Z,16.00
2023-03-17T01:08:36.472Z,15.80
2023-03-17T01:11:20.792Z,15.90
2023-03-17T01:13:57.570Z,15.40
2023-03-17T01:16:35.660Z,15.50
2023-03-17T01:19:20.240Z,15.50
2023-03-17T01:22:07.285Z,15.70
2023-03-17T01:24:51.464Z,15.70
2023-03-17T01:27:28.862Z,15.70
2023-03-17T01:30:05.530Z,15.90
2023-03-17T01:32:48.860Z,15.70
2023-03-17T01:35:27.048Z,15.80
2023-03-17T01:38:06.895Z,15.70
2023-03-17T01:40:52.070Z,15.80
2023-03-17T01:43:32.809Z,15.80
2023-03-17T01:46:37.346Z,15.70
2023-03-17T01:49:43.387Z,15.60
2023-03-17T01:52:27.317Z,15.60
2023-03-17T01:55:15.319Z,15.80
2023-03-17T01:57:59.149Z,16.10
2023-03-17T02:00:47.924Z,15.80
2023-03-17T02:03:38.070Z,15.70
2023-03-17T02:06:24.177Z,15.20
2023-03-17T02:09:06.054Z,15.50
2023-03-17T02:11:48.274Z,15.40
2023-03-17T02:14:39.791Z,15.40
2023-03-17T02:17:18.534Z,15.20
2023-03-17T02:19:57.386Z,15.40
2023-03-17T02:22:46.095Z,15.70
2023-03-17T02:25:30.750Z,15.50
2023-03-17T02:28:17.320Z,15.40
2023-03-17T02:30:55.339Z,15.20
2023-03-17T02:33:36.016Z,15.10
2023-03-17T02:36:20.669Z,15.20
2023-03-17T02:39:06.251Z,15.20
2023-03-17T02:41:47.920Z,15.30
2023-03-17T02:44:35.440Z,15.30
2023-03-17T02:47:20.488Z,15.30
2023-03-17T02:49:58.358Z,15.40
2023-03-17T02:52:38.950Z,16.00
2023-03-17T02:55:23.105Z,15.90
2023-03-17T02:57:59.716Z,16.10
2023-03-17T03:00:39.053Z,16.50
2023-03-17T03:03:16.746Z,16.50
2023-03-17T03:05:54.275Z,16.60
2023-03-17T03:08:36.621Z,16.60
2023-03-17T03:11:37.077Z,16.20
2023-03-17T03:14:16.797Z,16.40
2023-03-17T03:16:55.655Z,16.70
2023-03-17T03:19:35.430Z,16.80
2023-03-17T03:22:28.558Z,16.90
2023-03-17T03:25:18.837Z,16.70
2023-03-17T03:28:00.427Z,16.90
2023-03-17T03:30:40.425Z,16.50
2023-03-17T03:33:37.358Z,16.50
2023-03-17T03:36:14.972Z,16.50
2023-03-17T03:38:54.336Z,16.70
2023-03-17T03:41:39.827Z,16.10
2023-03-17T03:44:30.237Z,15.70
2023-03-17T03:47:10.817Z,15.60
2023-03-17T03:50:13.989Z,16.00
2023-03-17T03:52:52.939Z,16.40
2023-03-17T03:55:32.648Z,16.90
2023-03-17T03:58:10.625Z,17.00
2023-03-17T04:00:53.007Z,17.00
2023-03-17T04:03:32.065Z,17.30
2023-03-17T04:06:12.693Z,17.00
2023-03-17T04:08:58.168Z,17.00
2023-03-17T04:11:47.146Z,17.10
2023-03-17T04:14:24.293Z,16.90
2023-03-17T04:17:14.823Z,16.80
2023-03-17T04:19:52.840Z,17.10
2023-03-17T04:22:34.562Z,17.60
2023-03-17T04:25:21.572Z,17.20
2023-03-17T04:27:59.771Z,17.10
2023-03-17T04:30:37.004Z,16.90
2023-03-17T04:33:22.076Z,16.80
2023-03-17T04:36:01.812Z,16.90
2023-03-17T04:38:39.800Z,17.10
2023-03-17T04:41:16.828Z,17.10
2023-03-17T04:44:06.113Z,17.30
2023-03-17T04:46:44.681Z,17.50
2023-03-17T04:49:26.637Z,17.60
2023-03-17T04:52:03.528Z,16.60
2023-03-17T04:54:43.715Z,16.20
2023-03-17T04:57:23.326Z,16.60
2023-03-17T05:00:02.894Z,17.30
2023-03-17T05:02:43.494Z,17.40
2023-03-17T05:05:25.502Z,16.70
2023-03-17T05:08:05.684Z,17.10
2023-03-17T05:10:46.011Z,17.20
2023-03-17T05:13:23.020Z,17.20
2023-03-17T05:16:02.981Z,16.60
2023-03-17T05:18:41.555Z,16.80
2023-03-17T05:21:23.205Z,17.10
2023-03-17T05:24:01.735Z,17.00
2023-03-17T05:26:38.044Z,17.50
2023-03-17T05:29:16.390Z,17.90
2023-03-17T05:31:53.767Z,18.10
2023-03-17T05:34:33.922Z,18.00
2023-03-17T05:37:14.261Z,18.20
2023-03-17T05:39:51.244Z,17.80
2023-03-17T05:42:29.363Z,17.90
2023-03-17T05:45:07.008Z,18.10
2023-03-17T05:47:47.086Z,18.00
2023-03-17T05:50:31.593Z,17.60
2023-03-17T05:53:13.950Z,17.80
2023-03-17T05:55:51.583Z,18.00
2023-03-17T05:58:28.273Z,17.50
2023-03-17T06:01:07.952Z,17.60
2023-03-17T06:03:46.898Z,17.50
2023-03-17T06:06:24.852Z,18.20
2023-03-17T06:09:06.030Z,18.40
2023-03-17T06:11:46.584Z,17.90
2023-03-17T06:14:28.379Z,18.30
2023-03-17T06:17:07.321Z,18.90
2023-03-17T06:19:44.823Z,19.10
2023-03-17T06:22:22.239Z,18.80
2023-03-17T06:25:02.789Z,18.30
2023-03-17T06:27:42.779Z,18.20
2023-03-17T06:30:27.202Z,18.70
2023-03-17T06:33:11.946Z,18.70
2023-03-17T06:35:54.857Z,18.90
2023-03-17T06:38:31.941Z,18.80
2023-03-17T06:41:13.258Z,18.80
2023-03-17T06:43:50.353Z,18.20
2023-03-17T06:46:40.195Z,17.80
2023-03-17T06:49:21.452Z,18.00
2023-03-17T06:51:59.173Z,18.40
2023-03-17T06:54:46.682Z,18.50
2023-03-17T06:57:26.790Z,18.80
2023-03-17T07:00:05.022Z,18.90
2023-03-17T07:02:44.438Z,19.50
2023-03-17T07:05:32.273Z,19.50
2023-03-17T07:08:09.797Z,18.40
2023-03-17T07:10:53.710Z,18.10
2023-03-17T07:13:37.383Z,18.50
2023-03-17T07:16:18.669Z,18.90
2023-03-17T07:19:00.791Z,18.60
2023-03-17T07:21:38.237Z,18.50
2023-03-17T07:24:16.169Z,18.60
2023-03-17T07:26:53.364Z,18.20
2023-03-17T07:29:40.821Z,18.50
2023-03-17T07:32:18.049Z,18.50
2023-03-17T07:35:01.962Z,18.80
2023-03-17T07:37:42.933Z,18.60
2023-03-17T07:40:23.957Z,17.90
2023-03-17T07:43:00.875Z,17.90
2023-03-17T07:45:46.494Z,18.30
2023-03-17T07:48:28.084Z,18.80
2023-03-17T07:51:09.650Z,19.00
2023-03-17T07:53:52.443Z,19.50
2023-03-17T07:56:29.398Z,18.60
2023-03-17T07:59:10.993Z,18.40
2023-03-17T08:01:52.105Z,18.90
2023-03-17T08:04:29.832Z,18.70
2023-03-17T08:07:07.807Z,18.60
2023-03-17T08:09:49.660Z,18.20
2023-03-17T08:12:27.394Z,18.20
2023-03-17T08:15:07.393Z,18.40
2023-03-17T08:17:46.628Z,18.50
2023-03-17T08:20:24.971Z,18.90
2023-03-17T08:23:02.192Z,19.00
2023-03-17T08:25:44.027Z,18.40
2023-03-17T08:28:22.740Z,18.40
2023-03-17T08:31:14.094Z,18.70
2023-03-17T08:33:58.539Z,18.60
2023-03-17T08:36:36.625Z,18.30
2023-03-17T08:39:13.964Z,18.40
2023-03-17T08:41:51.303Z,18.30
2023-03-17T08:44:29.463Z,18.50
2023-03-17T08:47:06.214Z,18.70
2023-03-17T08:49:45.443Z,18.70
2023-03-17T08:52:24.155Z,18.40
2023-03-17T08:55:08.247Z,18.30
2023-03-17T08:57:47.606Z,18.20
2023-03-17T09:00:25.635Z,18.30
2023-03-17T09:03:04.163Z,18.10
2023-03-17T09:05:52.562Z,18.10
2023-03-17T09:08:29.175Z,18.10
2023-03-17T09:11:07.283Z,18.20
2023-03-17T09:13:46.186Z,18.30
2023-03-17T09:16:24.902Z,18.10
2023-03-17T09:19:13.428Z,18.00
2023-03-17T09:21:59.496Z,17.70
2023-03-17T09:24:40.307Z,17.40
2023-03-17T09:27:19.001Z,17.30
2023-03-17T09:29:56.295Z,17.50
2023-03-17T09:32:33.349Z,17.40
2023-03-17T09:35:19.717Z,17.70
2023-03-17T09:37:59.228Z,17.80
2023-03-17T09:40:51.131Z,17.90
2023-03-17T09:43:42.321Z,17.60
2023-03-17T09:46:42.212Z,17.80
2023-03-17T09:49:29.035Z,17.40
2023-03-17T09:52:13.029Z,17.20
2023-03-17T09:54:56.929Z,17.30
2023-03-17T09:57:41.620Z,17.50
2023-03-17T10:00:31.337Z,17.60
2023-03-17T10:03:09.900Z,17.70
2023-03-17T10:05:48.381Z,17.70
2023-03-17T10:08:31.705Z,17.80
2023-03-17T10:11:23.829Z,17.50
2023-03-17T10:14:06.245Z,17.00
2023-03-17T10:16:51.465Z,16.90
2023-03-17T10:19:40.004Z,16.80
2023-03-17T10:22:27.534Z,16.70
2023-03-17T10:25:10.734Z,16.70
2023-03-17T10:27:56.038Z,16.90
2023-03-17T10:30:33.454Z,17.20
2023-03-17T10:33:14.335Z,17.20
2023-03-17T10:35:53.373Z,17.10
2023-03-17T10:38:36.037Z,17.00
2023-03-17T10:41:19.078Z,16.90
2023-03-17T10:44:04.445Z,16.60
2023-03-17T10:46:46.613Z,16.70
2023-03-17T10:49:28.456Z,16.70
2023-03-17T10:52:31.620Z,16.70
2023-03-17T10:55:15.235Z,16.70
2023-03-17T10:58:01.658Z,16.70
2023-03-17T11:00:52.716Z,16.60
2023-03-17T11:03:35.390Z,16.50
2023-03-17T11:06:26.014Z,16.50
2023-03-17T11:09:11.343Z,16.50
2023-03-17T11:11:57.810Z,16.20
2023-03-17T11:14:36.182Z,16.10
2023-03-17T11:17:29.607Z,16.10
2023-03-17T11:20:45.194Z,16.00
2023-03-17T11:24:06.596Z,16.20
2023-03-17T11:27:01.728Z,16.30
2023-03-17T11:29:51.461Z,16.20
2023-03-17T11:33:04.902Z,16.30
2023-03-17T11:36:03.099Z,16.30
2023-03-17T11:38:44.225Z,16.20
2023-03-17T11:41:43.181Z,16.20
2023-03-17T11:44:59.221Z,16.10
2023-03-17T11:47:50.171Z,16.10
2023-03-17T11:50:42.929Z,16.30
2023-03-17T11:53:52.614Z,16.40
2023-03-17T11:56:36.116Z,16.30
2023-03-17T11:59:25.359Z,16.30
2023-03-17T12:02:17.642Z,16.20
2023-03-17T12:05:20.248Z,16.40
2023-03-17T12:08:03.213Z,16.40
2023-03-17T12:10:47.694Z,16.50
2023-03-17T12:13:41.729Z,16.40
2023-03-17T12:16:27.923Z,16.60
2023-03-17T12:19:14.372Z,16.50
2023-03-17T12:22:01.922Z,16.40
2023-03-17T12:24:45.652Z,16.60
2023-03-17T12:27:28.303Z,16.60
2023-03-17T12:30:11.020Z,16.60
2023-03-17T12:32:58.822Z,16.60
2023-03-17T12:35:41.304Z,16.40
2023-03-17T12:38:40.952Z,16.40
2023-03-17T12:41:54.852Z,16.20
2023-03-17T12:44:49.470Z,16.20
2023-03-17T12:48:03.196Z,16.10
2023-03-17T12:51:09.098Z,16.00
2023-03-17T12:53:54.499Z,16.00
2023-03-17T12:56:35.173Z,15.90
2023-03-17T12:59:21.040Z,15.80
2023-03-17T13:02:10.406Z,15.90
2023-03-17T13:04:59.590Z,16.10
2023-03-17T13:07:54.854Z,16.10
2023-03-17T13:10:52.331Z,16.20
2023-03-17T13:14:01.144Z,16.40
2023-03-17T13:16:40.037Z,16.40
2023-03-17T13:19:34.102Z,16.50
2023-03-17T13:22:39.834Z,16.50
2023-03-17T13:25:37.179Z,16.50
2023-03-17T13:28:52.864Z,16.50
2023-03-17T13:32:00.048Z,16.50
2023-03-17T13:35:09.552Z,16.60
2023-03-17T13:38:32.752Z,16.40
2023-03-17T13:41:33.718Z,16.40
2023-03-17T13:44:31.234Z,16.30
2023-03-17T13:47:40.227Z,16.30
2023-03-17T13:50:33.257Z,16.40
2023-03-17T13:53:20.499Z,16.50
2023-03-17T13:56:31.496Z,16.50
2023-03-17T13:59:48.224Z,16.40
2023-03-17T14:02:33.534Z,16.40
2023-03-17T14:05:15.718Z,16.50
2023-03-17T14:08:03.562Z,16.40
2023-03-17T14:10:45.922Z,16.40
2023-03-17T14:13:35.411Z,16.20
2023-03-17T14:16:26.957Z,16.20
2023-03-17T14:19:30.196Z,16.10
2023-03-17T14:22:25.123Z,16.10
2023-03-17T14:25:10.239Z,16.20
2023-03-17T14:27:59.399Z,16.20
2023-03-17T14:30:42.397Z,16.20
2023-03-17T14:33:44.604Z,16.20
2023-03-17T14:36:28.105Z,16.20
2023-03-17T14:39:08.618Z,16.30
2023-03-17T14:41:49.685Z,16.20
2023-03-17T14:44:29.185Z,16.30
2023-03-17T14:47:17.954Z,16.30
2023-03-17T14:50:07.306Z,16.30
2023-03-17T14:52:50.659Z,16.20
2023-03-17T14:55:47.271Z,16.20
2023-03-17T14:58:35.110Z,16.20
2023-03-17T15:01:22.002Z,16.30
2023-03-17T15:04:06.691Z,16.20
2023-03-17T15:07:15.775Z,16.20
2023-03-17T15:10:05.629Z,16.20
2023-03-17T15:12:48.548Z,16.20
2023-03-17T15:15:34.957Z,16.10
2023-03-17T15:18:18.619Z,16.10
2023-03-17T15:20:55.497Z,15.90
2023-03-17T15:23:51.255Z,16.10
2023-03-17T15:26:39.235Z,16.20
2023-03-17T15:29:17.181Z,16.40
2023-03-17T15:32:04.687Z,16.40
2023-03-17T15:34:49.329Z,16.30
2023-03-17T15:37:40.409Z,16.30
2023-03-17T15:40:27.731Z,16.30
2023-03-17T15:43:20.289Z,16.20
2023-03-17T15:46:00.308Z,15.90
2023-03-17T15:48:43.362Z,15.90
2023-03-17T15:51:41.014Z,15.80
2023-03-17T15:54:27.419Z,15.60
2023-03-17T15:57:16.945Z,15.60
2023-03-17T15:59:55.610Z,15.60
2023-03-17T16:02:38.159Z,15.60
2023-03-17T16:05:22.780Z,15.80
2023-03-17T16:08:13.625Z,15.80
2023-03-17T16:11:00.293Z,15.80
2023-03-17T16:13:39.270Z,15.80
2023-03-17T16:16:30.461Z,15.90
2023-03-17T16:19:12.417Z,16.00
2023-03-17T16:21:58.596Z,16.10
2023-03-17T16:24:49.950Z,16.10
2023-03-17T16:27:32.716Z,15.80
2023-03-17T16:30:26.430Z,15.70
2023-03-17T16:33:09.113Z,15.70
2023-03-17T16:35:50.186Z,15.70
2023-03-17T16:38:32.684Z,15.60
2023-03-17T16:41:24.062Z,15.50
2023-03-17T16:44:04.392Z,15.60
2023-03-17T16:46:46.621Z,15.60
2023-03-17T16:49:24.674Z,15.80
2023-03-17T16:52:04.019Z,15.90
2023-03-17T16:54:45.480Z,16.20
2023-03-17T16:57:23.503Z,16.20
2023-03-17T17:00:07.138Z,16.20
2023-03-17T17:02:57.844Z,16.10
2023-03-17T17:05:38.007Z,16.00
2023-03-17T17:08:15.403Z,15.90
2023-03-17T17:10:52.174Z,15.70
2023-03-17T17:13:33.726Z,15.60
2023-03-17T17:16:13.144Z,15.70
2023-03-17T17:18:55.531Z,16.00
2023-03-17T17:21:32.863Z,16.00
2023-03-17T17:24:26.640Z,16.20
2023-03-17T17:27:06.020Z,16.10
2023-03-17T17:29:42.112Z,16.10
2023-03-17T17:32:20.684Z,16.10
2023-03-17T17:35:01.459Z,16.10
2023-03-17T17:37:38.414Z,16.10
2023-03-17T17:40:19.319Z,16.20
2023-03-17T17:42:56.694Z,16.30
2023-03-17T17:45:39.499Z,16.20
2023-03-17T17:48:16.924Z,16.20
2023-03-17T17:50:57.659Z,16.20
2023-03-17T17:53:33.964Z,16.40
2023-03-17T17:56:10.430Z,16.30
2023-03-17T17:58:46.815Z,16.30
2023-03-17T18:01:24.121Z,16.10
2023-03-17T18:04:14.471Z,16.00
2023-03-17T18:07:07.252Z,16.00
2023-03-17T18:09:55.382Z,15.90
2023-03-17T18:12:40.391Z,15.70
2023-03-17T18:15:24.012Z,15.50
2023-03-17T18:18:03.285Z,15.20
2023-03-17T18:20:41.946Z,15.00
2023-03-17T18:23:31.067Z,15.00
2023-03-17T18:26:19.252Z,15.00
2023-03-17T18:29:03.474Z,15.00
2023-03-17T18:31:53.607Z,15.20
2023-03-17T18:34:39.350Z,15.10
2023-03-17T18:37:17.891Z,15.20
2023-03-17T18:40:12.610Z,15.20
2023-03-17T18:42:52.953Z,15.10
2023-03-17T18:45:31.616Z,15.20
2023-03-17T18:48:08.076Z,15.40
2023-03-17T18:50:44.714Z,15.00
2023-03-17T18:53:21.688Z,14.80
2023-03-17T18:56:01.062Z,14.50
2023-03-17T18:58:37.693Z,14.70
2023-03-17T19:01:17.154Z,14.80
2023-03-17T19:03:53.423Z,14.80
2023-03-17T19:06:30.972Z,14.70
2023-03-17T19:09:07.543Z,15.10
2023-03-17T19:11:46.864Z,15.20
2023-03-17T19:14:24.030Z,15.20
2023-03-17T19:17:02.142Z,15.10
2023-03-17T19:19:39.492Z,14.80
2023-03-17T19:22:16.084Z,14.70
2023-03-17T19:24:52.567Z,14.70
2023-03-17T19:27:31.257Z,14.80
2023-03-17T19:30:06.916Z,14.90
2023-03-17T19:32:42.555Z,14.70
2023-03-17T19:35:18.409Z,14.60
2023-03-17T19:37:54.555Z,14.40
2023-03-17T19:40:31.206Z,14.50
2023-03-17T19:43:10.636Z,14.30
2023-03-17T19:45:47.855Z,14.40
2023-03-17T19:48:22.808Z,14.20
2023-03-17T19:50:57.940Z,14.10
2023-03-17T19:53:32.652Z,13.90
2023-03-17T19:56:07.946Z,13.80
2023-03-17T19:58:44.660Z,13.70
2023-03-17T20:01:19.448Z,13.70
2023-03-17T20:03:54.951Z,13.80
2023-03-17T20:06:29.217Z,13.80
2023-03-17T20:09:05.386Z,14.10
2023-03-17T20:11:39.335Z,14.10
2023-03-17T20:14:17.335Z,14.20
2023-03-17T20:16:52.296Z,13.90
2023-03-17T20:19:26.487Z,14.00
2023-03-17T20:22:02.277Z,13.90
2023-03-17T20:24:38.005Z,13.80
2023-03-17T20:27:16.519Z,13.50
2023-03-17T20:29:53.975Z,13.60
2023-03-17T20:32:28.839Z,13.80
2023-03-17T20:35:05.621Z,13.60
2023-03-17T20:37:41.821Z,13.40
2023-03-17T20:40:16.875Z,13.30
2023-03-17T20:42:50.839Z,13.30
2023-03-17T20:45:27.116Z,13.20
2023-03-17T20:48:01.076Z,13.10
2023-03-17T20:50:37.930Z,13.20
2023-03-17T20:53:12.444Z,13.40
2023-03-17T20:55:49.189Z,13.40
2023-03-17T20:58:23.435Z,13.40
2023-03-17T21:01:00.364Z,13.50
2023-03-17T21:03:35.658Z,13.20
2023-03-17T21:06:10.865Z,13.20
2023-03-17T21:08:44.248Z,13.50
2023-03-17T21:11:21.817Z,13.70
2023-03-17T21:13:55.360Z,13.60
2023-03-17T21:16:32.574Z,13.60
2023-03-17T21:19:09.610Z,13.40
2023-03-17T21:21:43.192Z,13.40
2023-03-17T21:24:27.395Z,13.40
2023-03-17T21:27:03.871Z,13.20
2023-03-17T21:29:38.593Z,13.00
2023-03-17T21:32:14.118Z,13.20
2023-03-17T21:34:48.445Z,13.20
2023-03-17T21:37:22.942Z,13.20
2023-03-17T21:39:58.330Z,13.30
2023-03-17T21:42:34.443Z,13.40
2023-03-17T21:45:08.762Z,13.60
2023-03-17T21:47:45.232Z,13.60
2023-03-17T21:50:29.011Z,13.50
2023-03-17T21:53:03.298Z,13.50
2023-03-17T21:55:37.616Z,13.50
2023-03-17T21:58:12.303Z,13.50
2023-03-17T22:00:47.851Z,13.50
2023-03-17T22:03:24.375Z,13.70
2023-03-17T22:06:00.222Z,13.70
2023-03-17T22:08:36.182Z,13.60
2023-03-17T22:11:13.577Z,13.30
2023-03-17T22:13:48.462Z,13.50
2023-03-17T22:16:23.412Z,13.60
2023-03-17T22:18:59.606Z,13.50
2023-03-17T22:21:33.594Z,13.50
2023-03-17T22:24:09.121Z,13.30
2023-03-17T22:26:44.045Z,13.30
2023-03-17T22:29:19.513Z,13.20
2023-03-17T22:31:55.841Z,13.20
2023-03-17T22:34:33.568Z,13.40
2023-03-17T22:37:09.419Z,13.70
2023-03-17T22:39:42.802Z,13.70
2023-03-17T22:42:17.883Z,13.60
2023-03-17T22:44:54.927Z,13.60
2023-03-17T22:47:30.093Z,13.70
2023-03-17T22:50:07.726Z,13.50
2023-03-17T22:52:43.259Z,13.70
2023-03-17T22:55:19.492Z,13.80
2023-03-17T22:57:54.758Z,13.80
2023-03-17T23:00:30.342Z,13.80
2023-03-17T23:03:08.115Z,13.50
2023-03-17T23:05:49.444Z,13.60
2023-03-17T23:08:25.571Z,13.50
2023-03-17T23:11:01.469Z,13.70
2023-03-17T23:13:37.010Z,13.60
2023-03-17T23:16:12.958Z,13.50
2023-03-17T23:18:49.493Z,13.60
2023-03-17T23:21:31.767Z,13.60
2023-03-17T23:24:08.425Z,13.50
2023-03-17T23:26:44.113Z,13.70
2023-03-17T23:29:19.545Z,13.80
2023-03-17T23:31:55.337Z,13.80
2023-03-17T23:34:31.929Z,13.80
2023-03-17T23:37:13.922Z,14.10
2023-03-17T23:39:50.289Z,14.10
2023-03-17T23:42:26.476Z,14.10
2023-03-17T23:45:02.538Z,13.90
2023-03-17T23:47:40.511Z,13.80
2023-03-17T23:50:17.500Z,13.90
2023-03-17T23:52:55.539Z,13.90
2023-03-17T23:55:31.979Z,14.00
2023-03-17T23:58:08.346Z,14.20
